Decoded Metar for CYBU (NIPAWIN AIRPORT in SK, CANADA) (IATA:YBU) | Meteo·Mobile Aviation Weather
aviador You're here:

CYBU Decoded Metar

NIPAWIN AIRPORT in SK, CANADA
Report Time2018-10-20 05:00:00
UTC Time2018-10-20 06:02:50
Flight Rules vfr VFR
Wind280° at 07 kt
W.Decomp.*RWY 30: 6.1 kt HW 3.4 kt LCW
RWY 21: 3.4 kt HW 6.1 kt RCW
W.Rank280° ranks 2
Current wind is below 280° avg. (9.0)
Visibility9999 m
Phenomena:N/A
Clouds:N/A
Expected CloudBase > 1,600 ft AGL from Temp-Dew spread
CeilingNone
Temp-4°C (ISA -17)
Dew Point-8°C (74% RH)
AAT-9.4°C
QNH1027 hPa
Density Alt-1,234 ft
Elevation1,227 ft
Report Wrong Elevation
Raw Report
CYBU 200500Z AUTO 28007KT 9SM CLR M04/M08 A3032 RMK SLP288=

Extra information for CYBU:More info

Metar Taf Metar & Taf Last 4 Metars F.Rules Stats Wind Profile Meteogram Temp Stats Airport Information Weather charts Add Link Nearby VenuesMetar ALERT Operation Metar Decoded Social comments